Flight Track Log - Related Links

Times and Time Zones

All times are in EST time to prevent confusion due to time zone crossing. See the N6711L flight status page for this flight to view local times or setup timezone preferences in your user account.

Time Position Orientation Groundspeed Altitude Reporting Facility
EST Latitude Longitude Course Direction KTS MPH feet Rate Location/Type
Fri 04:04:54 PM 29.6825 -82.2519 152° Southeast 110 127 1,000  Level Jacksonville Center
Fri 04:06:07 PM 29.6553 -82.2353 152° Southeast 116 133 2,700 1,219 Climbing Jacksonville Center
Fri 04:07:02 PM 29.6239 -82.2356 180° South 126 145 3,600 931 Climbing Jacksonville Center
Fri 04:08:03 PM 29.5864 -82.2311 174° South 133 153 4,500 984 Climbing Jacksonville Center
Fri 04:09:04 PM 29.5508 -82.2314 180° South 128 147 5,600 934 Climbing Jacksonville Center
Fri 04:10:05 PM 29.5092 -82.2292 177° South 140 161 6,400 836 Climbing Jacksonville Center
Fri 04:11:06 PM 29.4672 -82.2269 177° South 146 168 7,300 393 Climbing Jacksonville Center
Fri 04:12:07 PM 29.4256 -82.2272 180° South 151 174 7,200 -49 Descending Jacksonville Center
Fri 04:13:08 PM 29.3797 -82.2300 183° South 162 186 7,200  Level Jacksonville Center
Fri 04:14:09 PM 29.3336 -82.2303 180° South 169 194 7,200  Level Jacksonville Center
Fri 04:15:04 PM 29.2897 -82.2283 178° South 170 196 7,200  Level Jacksonville Center
Fri 04:16:11 PM 29.2397 -82.2261 178° South 168 193 7,200  Level Jacksonville Center
Fri 04:17:12 PM 29.1939 -82.2289 183° South 165 190 7,200  Level Jacksonville Center
Fri 04:18:12 PM 29.1436 -82.2197 171° South 167 192 7,200  Level Jacksonville Center
Fri 04:19:13 PM 29.0978 -82.2106 170° South 166 191 7,200  Level Jacksonville Center
Fri 04:20:15 PM 29.0517 -82.2036 172° South 166 191 7,200  Level Jacksonville Center
Fri 04:21:15 PM 29.0078 -82.1944 170° South 166 191 7,200  Level Jacksonville Center
Fri 04:22:22 PM 28.9556 -82.1878 174° South 165 190 7,200  Level Jacksonville Center
Fri 04:23:23 PM 28.9075 -82.1764 168° South 167 192 7,200  Level Jacksonville Center
Fri 04:24:30 PM 28.8553 -82.1672 171° South 167 192 7,200 -36 Level Jacksonville Center
Fri 04:26:09 PM 28.7833 -82.1500 168° South 167 192 7,100 -38 Descending Tampa TRACON
Fri 04:27:09 PM 28.7333 -82.1500 180° South 168 193 7,100  Level Tampa TRACON
Fri 04:28:09 PM 28.6833 -82.1333 164° South 168 193 7,100  Level Tampa TRACON
Fri 04:29:09 PM 28.6500 -82.1333 180° South 167 192 7,100  Level Tampa TRACON
Fri 04:30:09 PM 28.6000 -82.1167 164° South 169 194 7,100  Level Tampa TRACON
Fri 04:31:15 PM 28.5500 -82.1167 180° South 169 194 7,100  Level Tampa TRACON
Fri 04:32:15 PM 28.5000 -82.1000 164° South 172 198 7,100  Level Tampa TRACON
Fri 04:33:10 PM 28.4500 -82.1000 180° South 170 196 7,100  Level Tampa TRACON
Fri 04:34:15 PM 28.4000 -82.0833 164° South 168 193 7,100  Level Tampa TRACON
Fri 04:35:10 PM 28.3667 -82.0833 180° South 170 196 7,100  Level Tampa TRACON
Fri 04:36:16 PM 28.3167 -82.0667 164° South 168 193 7,100  Level Tampa TRACON
Fri 04:37:10 PM 28.2667 -82.0667 180° South 167 192 7,100  Level Tampa TRACON
Fri 04:38:10 PM 28.2167 -82.0500 164° South 169 194 7,100  Level Tampa TRACON
Fri 04:39:16 PM 28.1667 -82.0500 180° South 168 193 7,100  Level Tampa TRACON
Fri 04:40:16 PM 28.1333 -82.0333 156° South 167 192 7,100  Level Tampa TRACON
Fri 04:41:10 PM 28.0833 -82.0333 180° South 167 192 7,100  Level Tampa TRACON
Fri 04:43:11 PM 27.9931 -82.0153 170° South 147 169 7,100  Level Miami Center
Fri 04:44:11 PM 27.9475 -82.0064 170° South 157 181 7,100  Level Miami Center
Fri 04:45:11 PM 27.9019 -81.9994 172° South 168 193 7,100  Level Miami Center
Fri 04:46:11 PM 27.8564 -81.9903 170° South 168 193 7,100  Level Miami Center
Fri 04:47:11 PM 27.8086 -81.9836 173° South 168 193 7,100  Level Miami Center
Fri 04:48:11 PM 27.7672 -81.9722 166° South 173 199 7,100  Level Miami Center
Fri 04:49:11 PM 27.7175 -81.9631 171° South 173 199 7,100  Level Miami Center
Fri 04:50:11 PM 27.6717 -81.9586 175° South 168 193 7,100  Level Miami Center
Fri 04:51:11 PM 27.6261 -81.9497 170° South 168 193 7,100  Level Miami Center
Fri 04:52:11 PM 27.5869 -81.9361 163° South 173 199 7,100  Level Miami Center
Fri 04:53:11 PM 27.5378 -81.9153 159° South 167 192 7,100  Level Miami Center
Fri 04:54:11 PM 27.5008 -81.8925 151° Southeast 167 192 7,100  Level Miami Center
Fri 04:55:11 PM 27.4578 -81.8697 155° Southeast 173 199 7,100  Level Miami Center
Fri 04:56:11 PM 27.4169 -81.8444 151° Southeast 173 199 7,100  Level Miami Center
Fri 04:57:11 PM 27.3739 -81.8214 155° Southeast 173 199 7,100  Level Miami Center
Fri 04:58:11 PM 27.3308 -81.7986 155° Southeast 173 199 7,100  Level Miami Center
Fri 04:59:11 PM 27.2878 -81.7758 155° Southeast 173 199 7,100  Level Miami Center
Fri 05:00:11 PM 27.2450 -81.7506 152° Southeast 173 199 7,100  Level Miami Center
Fri 05:01:11 PM 27.2039 -81.7278 154° Southeast 173 199 7,100  Level Miami Center
Fri 05:02:11 PM 27.1608 -81.7050 155° Southeast 173 199 7,100  Level Miami Center
Fri 05:03:11 PM 27.1178 -81.6800 153° Southeast 173 199 7,100  Level Miami Center
Fri 05:04:11 PM 27.0728 -81.6572 156° South 173 199 7,100  Level Miami Center
Fri 05:05:11 PM 27.0294 -81.6367 157° South 173 199 7,100  Level Miami Center
Fri 05:06:11 PM 26.9842 -81.6183 160° South 178 205 7,100  Level Miami Center
Fri 05:07:11 PM 26.9328 -81.5978 160° South 178 205 7,100  Level Miami Center
Fri 05:08:11 PM 26.8850 -81.5842 166° South 178 205 7,100  Level Miami Center
Fri 05:09:11 PM 26.8394 -81.5731 168° South 178 205 7,100  Level Miami Center
Fri 05:10:11 PM 26.7939 -81.5664 173° South 178 205 7,100  Level Miami Center
Fri 05:12:00 PM 26.7262 -81.6131 212° Southwest  Level FlightAware Approximate
Fri 05:19:00 PM 26.4373 -81.7209 187° South  Level FlightAware Approximate
Fri 05:20:00 PM 26.3939 -81.7271 187° South  Level FlightAware Approximate
Fri 05:21:00 PM 26.3505 -81.7333 187° South  Level FlightAware Approximate
Fri 05:22:00 PM 26.3071 -81.7395 187° South  Level FlightAware Approximate
Fri 05:23:00 PM 26.2636 -81.7457 187° South  Level FlightAware Approximate
Fri 05:24:00 PM 26.2203 -81.7526 190° South  Level FlightAware Approximate
Fri 05:25:00 PM 26.1773 -81.7612 190° South  Level FlightAware Approximate
Fri 05:26:00 PM 26.1500 -81.7667 190° South  Level FlightAware Approximate
Fri 05:27:00 PM 26.1524 -81.7756 190° South  Level Estimated
Fri 05:28:00 PM 26.1524 -81.7756 190° South  Level Estimated
Fri 05:29:00 PM 26.1524 -81.7756 190° South  Level Estimated
Fri 05:30:00 PM 26.1524 -81.7756 190° South  Level Estimated
Fri 05:31:00 PM 26.1524 -81.7756 190° South  Level Estimated
Fri 05:32:00 PM 26.1524 -81.7756 190° South  Level Estimated
Fri 05:33:00 PM 26.1524 -81.7756 190° South  Level Estimated
Fri 05:34:00 PM 26.1524 -81.7756 190° South  Level Estimated
Fri 05:35:00 PM 26.1524 -81.7756 190° South  Level Estimated
Fri 05:36:00 PM 26.1524 -81.7756 190° South  Level Estimated
Fri 05:37:00 PM 26.1524 -81.7756 190° South  Level Estimated
Fri 05:38:00 PM 26.1524 -81.7756 190° South  Level Estimated
Fri 05:39:00 PM 26.1524 -81.7756 190° South  Level Estimated

Login

Don't have an account? Register now (free) for customized features, flight alerts, and more!